Montverde, FL

12:03 AM EDT on September 03, 2015 (GMT -0400)
Bella Collina | | Change Station
CLOSE
Current Station
Personal Weather Station
Location: Montverde, FL
Elevation: 89 ft
Nearby Weather Stations

Elev 89 ft 28.58 °N, 81.66 °W | Updated 53 days ago

Clear
Clear
77 °F
Feels Like 77 °F
N
3
Wind Variable Wind from SSW
Gusts mph

Today
High -- | Low -- °F
--% Chance of Precip.
Yesterday
High -- | Low -- °F
Precip. -- in
7:05 AM 7:45 PM
Waning Gibbous, 74% visible
Pressure 30.02 in
Visibility 10.0 miles
Clouds Clear
Dew Point 74 °F
Humidity 92%
Rainfall in
Snow Depth Not available.
UV 0 out of 12
Pollen 5.50 out of 12
Air Quality Not available.
Flu Activity Not available.
METAR KORL 030353Z AUTO 20004KT 10SM CLR 27/24 A3002 RMK AO2 SLP166 T02720239
Pressure 30.02 in
Visibility 10.0 miles
Clouds Clear
Dew Point 74 °F
Humidity 92%
Rainfall in
Snow Depth Not available.
UV 0 out of 12
Pollen 5.50 out of 12
Air Quality Not available.
Flu Activity Not available.
METAR KORL 030353Z AUTO 20004KT 10SM CLR 27/24 A3002 RMK AO2 SLP166 T02720239

10-Day Weather Forecast

×

Almanac

Astronomy

Sep. 03, 2015 Rise Set
Actual Time
Civil Twilight
Nautical Twilight
Astronomical Twilight
Moon
Length of Visible Light
Length of Day
Tomorrow will be .
, % of the Moon is Illuminated

Today's Extremes

State Highs State Lows

Community

WunderPhotos

Upload Photos

1,851,908 photos uploaded!

WunderBlogs® & News

Nearby

Air Quality

  Air Quality AQ Index Pollutant
Not available.

Snow Depth

Station Depth Elevation

Earthquake Activity

City Distance Mag. Time & Date
Minimum magnitude displayed is 2.5.

Coastal Water Temperatures

Place Temperature

Stations

Nearby Weather Stations

Station Location Temp. Windchill Dew Point Humidity Wind Precip. Elev Updated Type